sensor_id;sensor_type;location;lat;lon;timestamp;temperature;humidity
16995;DHT22;8614;48.522;9.206;2023-04-01T02:01:18;8.50;99.90
16995;DHT22;8614;48.522;9.206;2023-04-01T02:03:46;8.60;99.90
16995;DHT22;8614;48.522;9.206;2023-04-01T02:06:16;8.60;99.90
16995;DHT22;8614;48.522;9.206;2023-04-01T02:08:45;8.60;99.90
16995;DHT22;8614;48.522;9.206;2023-04-01T02:11:16;8.60;99.90
16995;DHT22;8614;48.522;9.206;2023-04-01T02:13:50;8.60;99.90
16995;DHT22;8614;48.522;9.206;2023-04-01T02:16:22;8.60;99.90
16995;DHT22;8614;48.522;9.206;2023-04-01T02:18:55;8.60;99.90
16995;DHT22;8614;48.522;9.206;2023-04-01T02:21:26;8.60;99.90
16995;DHT22;8614;48.522;9.206;2023-04-01T02:23:55;8.60;99.90
16995;DHT22;8614;48.522;9.206;2023-04-01T02:26:23;8.60;99.90
16995;DHT22;8614;48.522;9.206;2023-04-01T02:28:52;8.50;99.90
16995;DHT22;8614;48.522;9.206;2023-04-01T02:31:21;8.50;99.90
16995;DHT22;8614;48.522;9.206;2023-04-01T02:33:49;8.50;99.90
16995;DHT22;8614;48.522;9.206;2023-04-01T02:36:17;8.40;99.90
16995;DHT22;8614;48.522;9.206;2023-04-01T02:38:45;8.40;99.90
16995;DHT22;8614;48.522;9.206;2023-04-01T02:41:13;8.40;99.90
16995;DHT22;8614;48.522;9.206;2023-04-01T02:43:40;8.40;99.90
16995;DHT22;8614;48.522;9.206;2023-04-01T02:46:07;8.40;99.90
16995;DHT22;8614;48.522;9.206;2023-04-01T02:48:35;8.30;99.90
16995;DHT22;8614;48.522;9.206;2023-04-01T02:51:02;8.40;99.90
16995;DHT22;8614;48.522;9.206;2023-04-01T02:53:29;8.30;99.90
16995;DHT22;8614;48.522;9.206;2023-04-01T02:55:56;8.30;99.90
16995;DHT22;8614;48.522;9.206;2023-04-01T02:58:23;8.30;99.90
16995;DHT22;8614;48.522;9.206;2023-04-01T03:00:50;8.20;99.90
16995;DHT22;8614;48.522;9.206;2023-04-01T03:03:17;8.10;99.90
16995;DHT22;8614;48.522;9.206;2023-04-01T03:05:45;8.00;99.90
16995;DHT22;8614;48.522;9.206;2023-04-01T03:08:12;8.00;99.90
16995;DHT22;8614;48.522;9.206;2023-04-01T03:10:39;7.90;99.90
16995;DHT22;8614;48.522;9.206;2023-04-01T03:13:06;7.80;99.90
16995;DHT22;8614;48.522;9.206;2023-04-01T03:15:33;7.80;99.90
16995;DHT22;8614;48.522;9.206;2023-04-01T03:18:00;7.70;99.90
16995;DHT22;8614;48.522;9.206;2023-04-01T03:20:27;7.70;99.90
16995;DHT22;8614;48.522;9.206;2023-04-01T03:22:55;7.60;99.90
16995;DHT22;8614;48.522;9.206;2023-04-01T03:25:22;7.60;99.90
16995;DHT22;8614;48.522;9.206;2023-04-01T03:27:50;7.50;99.90
16995;DHT22;8614;48.522;9.206;2023-04-01T03:30:17;7.50;99.90
16995;DHT22;8614;48.522;9.206;2023-04-01T03:32:49;7.50;99.90
16995;DHT22;8614;48.522;9.206;2023-04-01T03:35:16;7.50;99.90
16995;DHT22;8614;48.522;9.206;2023-04-01T03:37:45;7.50;99.90
16995;DHT22;8614;48.522;9.206;2023-04-01T03:40:13;7.40;99.90
16995;DHT22;8614;48.522;9.206;2023-04-01T03:42:40;7.40;99.90
16995;DHT22;8614;48.522;9.206;2023-04-01T03:45:08;7.40;99.90
16995;DHT22;8614;48.522;9.206;2023-04-01T03:47:35;7.30;99.90
16995;DHT22;8614;48.522;9.206;2023-04-01T03:50:02;7.30;99.90
16995;DHT22;8614;48.522;9.206;2023-04-01T03:52:29;7.20;99.90
16995;DHT22;8614;48.522;9.206;2023-04-01T03:54:56;7.20;99.90
16995;DHT22;8614;48.522;9.206;2023-04-01T03:57:24;7.20;99.90
16995;DHT22;8614;48.522;9.206;2023-04-01T03:59:53;7.10;99.90
16995;DHT22;8614;48.522;9.206;2023-04-01T04:02:20;7.10;99.90
16995;DHT22;8614;48.522;9.206;2023-04-01T04:04:47;7.10;99.90
16995;DHT22;8614;48.522;9.206;2023-04-01T04:07:14;7.10;99.90
16995;DHT22;8614;48.522;9.206;2023-04-01T04:10:13;7.10;99.90
16995;DHT22;8614;48.522;9.206;2023-04-01T04:12:41;7.10;99.90
16995;DHT22;8614;48.522;9.206;2023-04-01T04:15:10;7.10;99.90
16995;DHT22;8614;48.522;9.206;2023-04-01T04:17:37;7.10;99.90
16995;DHT22;8614;48.522;9.206;2023-04-01T04:20:05;7.20;99.90
16995;DHT22;8614;48.522;9.206;2023-04-01T04:22:32;7.20;99.90
16995;DHT22;8614;48.522;9.206;2023-04-01T04:24:59;7.10;99.90
16995;DHT22;8614;48.522;9.206;2023-04-01T04:27:26;7.20;99.90
16995;DHT22;8614;48.522;9.206;2023-04-01T04:30:05;7.20;99.90
16995;DHT22;8614;48.522;9.206;2023-04-01T04:32:33;7.20;99.90
16995;DHT22;8614;48.522;9.206;2023-04-01T04:35:00;7.20;99.90
16995;DHT22;8614;48.522;9.206;2023-04-01T04:37:27;7.20;99.90
16995;DHT22;8614;48.522;9.206;2023-04-01T04:39:54;7.20;99.90
16995;DHT22;8614;48.522;9.206;2023-04-01T04:42:20;7.20;99.90
16995;DHT22;8614;48.522;9.206;2023-04-01T04:44:49;7.20;99.90
16995;DHT22;8614;48.522;9.206;2023-04-01T04:47:17;7.20;99.90
16995;DHT22;8614;48.522;9.206;2023-04-01T04:49:44;7.30;99.90
16995;DHT22;8614;48.522;9.206;2023-04-01T04:52:11;7.30;99.90
16995;DHT22;8614;48.522;9.206;2023-04-01T04:54:38;7.40;99.90
16995;DHT22;8614;48.522;9.206;2023-04-01T04:57:05;7.40;99.90
16995;DHT22;8614;48.522;9.206;2023-04-01T04:59:39;7.50;99.90
16995;DHT22;8614;48.522;9.206;2023-04-01T05:02:11;7.50;99.90
16995;DHT22;8614;48.522;9.206;2023-04-01T05:04:39;7.50;99.90
16995;DHT22;8614;48.522;9.206;2023-04-01T05:07:09;7.50;99.90
16995;DHT22;8614;48.522;9.206;2023-04-01T05:09:35;7.60;99.90
16995;DHT22;8614;48.522;9.206;2023-04-01T05:12:03;7.60;99.90
16995;DHT22;8614;48.522;9.206;2023-04-01T05:14:50;7.70;99.90
16995;DHT22;8614;48.522;9.206;2023-04-01T05:17:17;7.80;99.90
16995;DHT22;8614;48.522;9.206;2023-04-01T05:19:45;7.80;99.90
16995;DHT22;8614;48.522;9.206;2023-04-01T05:22:12;7.80;99.90
16995;DHT22;8614;48.522;9.206;2023-04-01T05:24:40;7.90;99.90
16995;DHT22;8614;48.522;9.206;2023-04-01T05:27:06;8.00;99.90
16995;DHT22;8614;48.522;9.206;2023-04-01T05:29:37;8.10;99.90
16995;DHT22;8614;48.522;9.206;2023-04-01T05:32:07;8.10;99.90
16995;DHT22;8614;48.522;9.206;2023-04-01T05:34:35;8.20;99.90
16995;DHT22;8614;48.522;9.206;2023-04-01T05:37:03;8.30;99.90
16995;DHT22;8614;48.522;9.206;2023-04-01T05:39:30;8.40;99.90
16995;DHT22;8614;48.522;9.206;2023-04-01T05:41:57;8.40;99.90
16995;DHT22;8614;48.522;9.206;2023-04-01T05:44:24;8.60;99.90
16995;DHT22;8614;48.522;9.206;2023-04-01T05:47:23;8.70;99.90
16995;DHT22;8614;48.522;9.206;2023-04-01T05:49:50;8.80;99.90
16995;DHT22;8614;48.522;9.206;2023-04-01T05:52:19;9.00;99.90
16995;DHT22;8614;48.522;9.206;2023-04-01T05:54:45;9.30;99.90
16995;DHT22;8614;48.522;9.206;2023-04-01T05:57:12;9.50;99.90
16995;DHT22;8614;48.522;9.206;2023-04-01T05:59:39;9.60;99.90
16995;DHT22;8614;48.522;9.206;2023-04-01T06:02:07;9.60;99.90
16995;DHT22;8614;48.522;9.206;2023-04-01T06:04:38;9.80;99.90
16995;DHT22;8614;48.522;9.206;2023-04-01T06:07:11;9.90;99.90
16995;DHT22;8614;48.522;9.206;2023-04-01T06:09:40;10.00;99.90
16995;DHT22;8614;48.522;9.206;2023-04-01T06:12:20;10.00;99.90
16995;DHT22;8614;48.522;9.206;2023-04-01T06:15:06;10.20;99.90
16995;DHT22;8614;48.522;9.206;2023-04-01T06:17:47;10.40;99.90
16995;DHT22;8614;48.522;9.206;2023-04-01T06:20:22;10.60;99.90
16995;DHT22;8614;48.522;9.206;2023-04-01T06:23:24;10.70;99.90
16995;DHT22;8614;48.522;9.206;2023-04-01T06:32:13;11.10;99.90
16995;DHT22;8614;48.522;9.206;2023-04-01T06:34:55;11.20;99.90
16995;DHT22;8614;48.522;9.206;2023-04-01T06:37:44;11.10;99.90
16995;DHT22;8614;48.522;9.206;2023-04-01T06:43:14;11.00;99.90
16995;DHT22;8614;48.522;9.206;2023-04-01T06:46:08;10.90;99.90
16995;DHT22;8614;48.522;9.206;2023-04-01T06:49:07;10.80;99.90
16995;DHT22;8614;48.522;9.206;2023-04-01T06:52:02;10.70;99.90
16995;DHT22;8614;48.522;9.206;2023-04-01T06:55:04;10.70;99.90
16995;DHT22;8614;48.522;9.206;2023-04-01T06:58:04;10.70;99.90
16995;DHT22;8614;48.522;9.206;2023-04-01T07:00:36;10.70;99.90
16995;DHT22;8614;48.522;9.206;2023-04-01T07:03:12;10.60;99.90
16995;DHT22;8614;48.522;9.206;2023-04-01T07:05:41;10.60;99.90
16995;DHT22;8614;48.522;9.206;2023-04-01T07:08:12;10.70;99.90
16995;DHT22;8614;48.522;9.206;2023-04-01T07:10:44;10.70;99.90
16995;DHT22;8614;48.522;9.206;2023-04-01T07:13:36;10.80;99.90
16995;DHT22;8614;48.522;9.206;2023-04-01T07:16:18;10.80;99.90
16995;DHT22;8614;48.522;9.206;2023-04-01T07:18:49;10.80;99.90
16995;DHT22;8614;48.522;9.206;2023-04-01T07:21:25;10.90;99.90
16995;DHT22;8614;48.522;9.206;2023-04-01T07:24:00;10.90;99.90
16995;DHT22;8614;48.522;9.206;2023-04-01T07:26:57;11.00;99.90
16995;DHT22;8614;48.522;9.206;2023-04-01T07:29:27;11.00;99.90
16995;DHT22;8614;48.522;9.206;2023-04-01T07:32:14;11.00;99.90
16995;DHT22;8614;48.522;9.206;2023-04-01T07:34:54;11.00;99.90
16995;DHT22;8614;48.522;9.206;2023-04-01T07:37:28;11.00;99.90
16995;DHT22;8614;48.522;9.206;2023-04-01T07:40:07;11.00;99.90
16995;DHT22;8614;48.522;9.206;2023-04-01T07:42:48;11.10;99.90
16995;DHT22;8614;48.522;9.206;2023-04-01T07:45:24;11.10;99.90
16995;DHT22;8614;48.522;9.206;2023-04-01T07:48:06;11.00;99.90
16995;DHT22;8614;48.522;9.206;2023-04-01T07:50:40;11.00;99.90
16995;DHT22;8614;48.522;9.206;2023-04-01T07:53:16;11.00;99.90
16995;DHT22;8614;48.522;9.206;2023-04-01T07:55:50;11.00;99.90
16995;DHT22;8614;48.522;9.206;2023-04-01T07:58:24;11.10;99.90
16995;DHT22;8614;48.522;9.206;2023-04-01T08:01:00;11.20;99.90
16995;DHT22;8614;48.522;9.206;2023-04-01T08:03:48;11.20;99.90
16995;DHT22;8614;48.522;9.206;2023-04-01T08:06:22;11.20;99.90
16995;DHT22;8614;48.522;9.206;2023-04-01T08:08:59;11.20;99.90
16995;DHT22;8614;48.522;9.206;2023-04-01T08:11:57;11.30;99.90
16995;DHT22;8614;48.522;9.206;2023-04-01T08:14:54;11.30;99.90
16995;DHT22;8614;48.522;9.206;2023-04-01T08:17:40;11.20;99.90
16995;DHT22;8614;48.522;9.206;2023-04-01T08:20:26;11.10;99.90
16995;DHT22;8614;48.522;9.206;2023-04-01T08:22:58;11.10;99.90
16995;DHT22;8614;48.522;9.206;2023-04-01T08:25:34;11.10;99.90
16995;DHT22;8614;48.522;9.206;2023-04-01T08:28:10;11.00;99.90
16995;DHT22;8614;48.522;9.206;2023-04-01T08:30:43;10.90;99.90
16995;DHT22;8614;48.522;9.206;2023-04-01T08:33:13;10.90;99.90
16995;DHT22;8614;48.522;9.206;2023-04-01T08:35:47;11.00;99.90
16995;DHT22;8614;48.522;9.206;2023-04-01T08:38:20;11.00;99.90
16995;DHT22;8614;48.522;9.206;2023-04-01T08:41:08;11.00;99.90
16995;DHT22;8614;48.522;9.206;2023-04-01T08:44:23;11.10;99.90
16995;DHT22;8614;48.522;9.206;2023-04-01T08:47:13;11.10;99.90
16995;DHT22;8614;48.522;9.206;2023-04-01T08:50:01;11.10;99.90
16995;DHT22;8614;48.522;9.206;2023-04-01T08:52:56;11.10;99.90
16995;DHT22;8614;48.522;9.206;2023-04-01T08:55:31;11.00;99.90
16995;DHT22;8614;48.522;9.206;2023-04-01T09:01:41;10.90;99.90
16995;DHT22;8614;48.522;9.206;2023-04-01T09:04:41;10.90;99.90
16995;DHT22;8614;48.522;9.206;2023-04-01T09:07:25;10.90;99.90
16995;DHT22;8614;48.522;9.206;2023-04-01T09:10:20;10.90;99.90
16995;DHT22;8614;48.522;9.206;2023-04-01T09:13:18;10.80;99.90
16995;DHT22;8614;48.522;9.206;2023-04-01T09:22:31;10.90;99.90
16995;DHT22;8614;48.522;9.206;2023-04-01T09:25:28;11.10;99.90
16995;DHT22;8614;48.522;9.206;2023-04-01T09:28:03;11.30;99.90
16995;DHT22;8614;48.522;9.206;2023-04-01T09:30:57;11.50;99.90
16995;DHT22;8614;48.522;9.206;2023-04-01T09:33:55;11.60;99.90
16995;DHT22;8614;48.522;9.206;2023-04-01T09:36:47;11.90;99.90
16995;DHT22;8614;48.522;9.206;2023-04-01T09:39:35;11.90;99.90
16995;DHT22;8614;48.522;9.206;2023-04-01T09:42:16;11.80;99.90
16995;DHT22;8614;48.522;9.206;2023-04-01T09:45:08;11.70;99.90
16995;DHT22;8614;48.522;9.206;2023-04-01T09:47:51;11.60;99.90
16995;DHT22;8614;48.522;9.206;2023-04-01T09:50:31;11.60;99.90
16995;DHT22;8614;48.522;9.206;2023-04-01T09:53:14;11.50;99.90
16995;DHT22;8614;48.522;9.206;2023-04-01T09:56:26;11.30;99.90
16995;DHT22;8614;48.522;9.206;2023-04-01T09:59:46;11.20;99.90
16995;DHT22;8614;48.522;9.206;2023-04-01T10:02:49;11.30;99.90
16995;DHT22;8614;48.522;9.206;2023-04-01T10:08:41;11.80;99.90
16995;DHT22;8614;48.522;9.206;2023-04-01T10:11:53;12.10;99.90
16995;DHT22;8614;48.522;9.206;2023-04-01T10:20:54;11.90;99.90
16995;DHT22;8614;48.522;9.206;2023-04-01T10:23:34;11.60;99.90
16995;DHT22;8614;48.522;9.206;2023-04-01T10:35:52;11.10;99.90
16995;DHT22;8614;48.522;9.206;2023-04-01T10:45:24;11.00;99.90
16995;DHT22;8614;48.522;9.206;2023-04-01T10:48:23;11.10;99.90
16995;DHT22;8614;48.522;9.206;2023-04-01T10:51:12;11.20;99.90
16995;DHT22;8614;48.522;9.206;2023-04-01T10:57:41;11.40;99.90
16995;DHT22;8614;48.522;9.206;2023-04-01T11:00:57;11.50;99.90
16995;DHT22;8614;48.522;9.206;2023-04-01T11:07:43;11.90;99.90
16995;DHT22;8614;48.522;9.206;2023-04-01T11:19:36;11.90;99.90
16995;DHT22;8614;48.522;9.206;2023-04-01T11:22:23;11.90;99.90
16995;DHT22;8614;48.522;9.206;2023-04-01T11:25:14;11.90;99.90
16995;DHT22;8614;48.522;9.206;2023-04-01T11:28:32;12.20;99.90
16995;DHT22;8614;48.522;9.206;2023-04-01T11:31:37;12.30;99.90
16995;DHT22;8614;48.522;9.206;2023-04-01T11:34:16;12.20;99.90
16995;DHT22;8614;48.522;9.206;2023-04-01T11:36:55;12.20;99.90
16995;DHT22;8614;48.522;9.206;2023-04-01T11:39:32;12.20;99.90
16995;DHT22;8614;48.522;9.206;2023-04-01T11:42:13;12.10;99.90
16995;DHT22;8614;48.522;9.206;2023-04-01T11:45:11;12.00;99.90
16995;DHT22;8614;48.522;9.206;2023-04-01T11:47:52;11.90;99.90
16995;DHT22;8614;48.522;9.206;2023-04-01T11:50:28;11.90;99.90
16995;DHT22;8614;48.522;9.206;2023-04-01T11:53:17;12.00;99.90
16995;DHT22;8614;48.522;9.206;2023-04-01T11:55:58;12.30;99.90
16995;DHT22;8614;48.522;9.206;2023-04-01T11:59:22;12.50;99.90
16995;DHT22;8614;48.522;9.206;2023-04-01T12:01:59;12.80;99.90
16995;DHT22;8614;48.522;9.206;2023-04-01T12:10:38;13.40;99.90
16995;DHT22;8614;48.522;9.206;2023-04-01T12:13:14;13.40;99.90
16995;DHT22;8614;48.522;9.206;2023-04-01T12:15:54;13.30;99.90
16995;DHT22;8614;48.522;9.206;2023-04-01T12:18:27;13.30;99.90
16995;DHT22;8614;48.522;9.206;2023-04-01T12:21:03;13.10;99.90
16995;DHT22;8614;48.522;9.206;2023-04-01T12:26:42;12.90;99.90
16995;DHT22;8614;48.522;9.206;2023-04-01T12:29:37;12.90;99.90
16995;DHT22;8614;48.522;9.206;2023-04-01T12:32:20;12.80;99.90
16995;DHT22;8614;48.522;9.206;2023-04-01T12:35:13;12.70;99.90
16995;DHT22;8614;48.522;9.206;2023-04-01T12:37:47;12.70;99.90
16995;DHT22;8614;48.522;9.206;2023-04-01T12:40:24;12.80;99.90
16995;DHT22;8614;48.522;9.206;2023-04-01T12:43:04;12.90;99.90
16995;DHT22;8614;48.522;9.206;2023-04-01T12:45:33;13.00;99.90
16995;DHT22;8614;48.522;9.206;2023-04-01T12:51:29;13.20;99.90
16995;DHT22;8614;48.522;9.206;2023-04-01T12:54:22;13.10;99.90
16995;DHT22;8614;48.522;9.206;2023-04-01T12:57:03;13.30;99.90
16995;DHT22;8614;48.522;9.206;2023-04-01T12:59:58;13.10;99.90
16995;DHT22;8614;48.522;9.206;2023-04-01T13:02:40;13.10;99.90
16995;DHT22;8614;48.522;9.206;2023-04-01T13:05:24;13.30;99.90
16995;DHT22;8614;48.522;9.206;2023-04-01T13:08:12;13.40;99.90
16995;DHT22;8614;48.522;9.206;2023-04-01T13:10:59;13.40;99.90
16995;DHT22;8614;48.522;9.206;2023-04-01T13:16:34;13.50;99.90
16995;DHT22;8614;48.522;9.206;2023-04-01T13:19:07;13.50;99.90
16995;DHT22;8614;48.522;9.206;2023-04-01T13:21:46;13.40;99.90
16995;DHT22;8614;48.522;9.206;2023-04-01T13:24:28;13.40;99.90
16995;DHT22;8614;48.522;9.206;2023-04-01T13:27:02;13.50;99.90
16995;DHT22;8614;48.522;9.206;2023-04-01T13:29:35;13.50;99.90
16995;DHT22;8614;48.522;9.206;2023-04-01T13:32:18;13.60;99.90
16995;DHT22;8614;48.522;9.206;2023-04-01T13:35:08;13.80;99.90
16995;DHT22;8614;48.522;9.206;2023-04-01T13:37:51;13.80;99.90
16995;DHT22;8614;48.522;9.206;2023-04-01T13:40:33;13.80;99.90
16995;DHT22;8614;48.522;9.206;2023-04-01T13:43:07;13.80;99.90
16995;DHT22;8614;48.522;9.206;2023-04-01T13:45:46;13.70;99.90
16995;DHT22;8614;48.522;9.206;2023-04-01T13:48:28;13.50;99.90
16995;DHT22;8614;48.522;9.206;2023-04-01T13:51:18;13.40;99.90
16995;DHT22;8614;48.522;9.206;2023-04-01T13:54:04;13.20;99.90
16995;DHT22;8614;48.522;9.206;2023-04-01T13:56:42;13.20;99.90
16995;DHT22;8614;48.522;9.206;2023-04-01T13:59:36;13.20;99.90
16995;DHT22;8614;48.522;9.206;2023-04-01T14:02:29;13.20;99.90
16995;DHT22;8614;48.522;9.206;2023-04-01T14:05:20;13.20;99.90
16995;DHT22;8614;48.522;9.206;2023-04-01T14:07:57;13.20;99.90
16995;DHT22;8614;48.522;9.206;2023-04-01T14:10:31;13.10;99.90
16995;DHT22;8614;48.522;9.206;2023-04-01T14:13:09;13.00;99.90
16995;DHT22;8614;48.522;9.206;2023-04-01T14:15:47;12.90;99.90
16995;DHT22;8614;48.522;9.206;2023-04-01T14:18:39;12.90;99.90
16995;DHT22;8614;48.522;9.206;2023-04-01T14:21:17;13.10;99.90
16995;DHT22;8614;48.522;9.206;2023-04-01T14:26:34;12.90;99.90
16995;DHT22;8614;48.522;9.206;2023-04-01T14:29:15;12.90;99.90
16995;DHT22;8614;48.522;9.206;2023-04-01T14:31:59;12.90;99.90
16995;DHT22;8614;48.522;9.206;2023-04-01T14:34:38;12.80;99.90
16995;DHT22;8614;48.522;9.206;2023-04-01T14:37:23;12.90;99.90
16995;DHT22;8614;48.522;9.206;2023-04-01T14:40:16;12.90;99.90
16995;DHT22;8614;48.522;9.206;2023-04-01T14:46:33;12.70;99.90
16995;DHT22;8614;48.522;9.206;2023-04-01T14:49:04;12.70;99.90
16995;DHT22;8614;48.522;9.206;2023-04-01T14:51:41;12.70;99.90
16995;DHT22;8614;48.522;9.206;2023-04-01T14:54:13;12.70;99.90
16995;DHT22;8614;48.522;9.206;2023-04-01T14:56:49;12.80;99.90
16995;DHT22;8614;48.522;9.206;2023-04-01T14:59:27;12.90;99.90
16995;DHT22;8614;48.522;9.206;2023-04-01T15:02:02;12.90;99.90
16995;DHT22;8614;48.522;9.206;2023-04-01T15:04:49;12.80;99.90
16995;DHT22;8614;48.522;9.206;2023-04-01T15:07:37;12.80;99.90
16995;DHT22;8614;48.522;9.206;2023-04-01T15:10:16;12.80;99.90
16995;DHT22;8614;48.522;9.206;2023-04-01T15:12:54;12.80;99.90
16995;DHT22;8614;48.522;9.206;2023-04-01T15:15:31;12.70;99.90
16995;DHT22;8614;48.522;9.206;2023-04-01T15:18:09;12.80;99.90
16995;DHT22;8614;48.522;9.206;2023-04-01T15:23:46;12.70;99.90
16995;DHT22;8614;48.522;9.206;2023-04-01T15:26:42;12.70;99.90
16995;DHT22;8614;48.522;9.206;2023-04-01T15:29:38;12.60;99.90
16995;DHT22;8614;48.522;9.206;2023-04-01T15:32:16;12.50;99.90
16995;DHT22;8614;48.522;9.206;2023-04-01T15:34:54;12.50;99.90
16995;DHT22;8614;48.522;9.206;2023-04-01T15:37:33;12.60;99.90
16995;DHT22;8614;48.522;9.206;2023-04-01T15:40:15;12.50;99.90
16995;DHT22;8614;48.522;9.206;2023-04-01T15:42:55;12.40;99.90
16995;DHT22;8614;48.522;9.206;2023-04-01T15:45:39;12.20;99.90
16995;DHT22;8614;48.522;9.206;2023-04-01T15:48:27;12.20;99.90
16995;DHT22;8614;48.522;9.206;2023-04-01T15:51:11;12.20;99.90
16995;DHT22;8614;48.522;9.206;2023-04-01T15:56:55;12.00;99.90
16995;DHT22;8614;48.522;9.206;2023-04-01T16:02:25;11.80;99.90
16995;DHT22;8614;48.522;9.206;2023-04-01T16:04:59;11.70;99.90
16995;DHT22;8614;48.522;9.206;2023-04-01T16:07:57;11.60;99.90
16995;DHT22;8614;48.522;9.206;2023-04-01T16:10:49;11.60;99.90
16995;DHT22;8614;48.522;9.206;2023-04-01T16:13:42;11.50;99.90
16995;DHT22;8614;48.522;9.206;2023-04-01T16:16:19;11.50;99.90
16995;DHT22;8614;48.522;9.206;2023-04-01T16:19:03;11.50;99.90
16995;DHT22;8614;48.522;9.206;2023-04-01T16:21:37;11.50;99.90
16995;DHT22;8614;48.522;9.206;2023-04-01T16:24:15;11.40;99.90
16995;DHT22;8614;48.522;9.206;2023-04-01T16:26:49;11.40;99.90
16995;DHT22;8614;48.522;9.206;2023-04-01T16:29:24;11.30;99.90
16995;DHT22;8614;48.522;9.206;2023-04-01T16:31:55;11.30;99.90
16995;DHT22;8614;48.522;9.206;2023-04-01T16:34:30;11.30;99.90
16995;DHT22;8614;48.522;9.206;2023-04-01T16:37:05;11.30;99.90
16995;DHT22;8614;48.522;9.206;2023-04-01T16:39:41;11.30;99.90
16995;DHT22;8614;48.522;9.206;2023-04-01T16:42:34;11.30;99.90
16995;DHT22;8614;48.522;9.206;2023-04-01T16:45:19;11.30;99.90
16995;DHT22;8614;48.522;9.206;2023-04-01T16:47:50;11.30;99.90
16995;DHT22;8614;48.522;9.206;2023-04-01T16:50:20;11.30;99.90
16995;DHT22;8614;48.522;9.206;2023-04-01T16:52:57;11.20;99.90
16995;DHT22;8614;48.522;9.206;2023-04-01T16:55:41;11.20;99.90
16995;DHT22;8614;48.522;9.206;2023-04-01T16:58:10;11.20;99.90
16995;DHT22;8614;48.522;9.206;2023-04-01T17:00:44;11.20;99.90
16995;DHT22;8614;48.522;9.206;2023-04-01T17:03:17;11.10;99.90
16995;DHT22;8614;48.522;9.206;2023-04-01T17:05:55;11.10;99.90
16995;DHT22;8614;48.522;9.206;2023-04-01T17:08:39;11.10;99.90
16995;DHT22;8614;48.522;9.206;2023-04-01T17:11:16;11.10;99.90
16995;DHT22;8614;48.522;9.206;2023-04-01T17:13:52;11.10;99.90
16995;DHT22;8614;48.522;9.206;2023-04-01T17:19:56;11.00;99.90
16995;DHT22;8614;48.522;9.206;2023-04-01T17:22:33;10.90;99.90
16995;DHT22;8614;48.522;9.206;2023-04-01T17:27:59;10.90;99.90
16995;DHT22;8614;48.522;9.206;2023-04-01T17:30:33;10.80;99.90
16995;DHT22;8614;48.522;9.206;2023-04-01T17:33:23;10.80;99.90
16995;DHT22;8614;48.522;9.206;2023-04-01T17:35:57;10.70;99.90
16995;DHT22;8614;48.522;9.206;2023-04-01T17:38:38;10.70;99.90
16995;DHT22;8614;48.522;9.206;2023-04-01T17:41:10;10.60;99.90
16995;DHT22;8614;48.522;9.206;2023-04-01T17:43:47;10.60;99.90
16995;DHT22;8614;48.522;9.206;2023-04-01T17:46:32;10.60;99.90
16995;DHT22;8614;48.522;9.206;2023-04-01T17:49:18;10.60;99.90
16995;DHT22;8614;48.522;9.206;2023-04-01T17:51:52;10.60;99.90
16995;DHT22;8614;48.522;9.206;2023-04-01T17:54:28;10.50;99.90
16995;DHT22;8614;48.522;9.206;2023-04-01T17:59:58;10.50;99.90
16995;DHT22;8614;48.522;9.206;2023-04-01T18:02:35;10.40;99.90
16995;DHT22;8614;48.522;9.206;2023-04-01T18:05:22;10.40;99.90
16995;DHT22;8614;48.522;9.206;2023-04-01T18:08:03;10.40;99.90
16995;DHT22;8614;48.522;9.206;2023-04-01T18:10:39;10.40;99.90
16995;DHT22;8614;48.522;9.206;2023-04-01T18:13:29;10.40;99.90
16995;DHT22;8614;48.522;9.206;2023-04-01T18:16:15;10.40;99.90
16995;DHT22;8614;48.522;9.206;2023-04-01T18:18:50;10.40;99.90
16995;DHT22;8614;48.522;9.206;2023-04-01T18:21:27;10.40;99.90
16995;DHT22;8614;48.522;9.206;2023-04-01T18:23:58;10.40;99.90
16995;DHT22;8614;48.522;9.206;2023-04-01T18:26:30;10.50;99.90
16995;DHT22;8614;48.522;9.206;2023-04-01T18:28:59;10.40;99.90
16995;DHT22;8614;48.522;9.206;2023-04-01T18:31:36;10.40;99.90
16995;DHT22;8614;48.522;9.206;2023-04-01T18:34:08;10.40;99.90
16995;DHT22;8614;48.522;9.206;2023-04-01T18:36:41;10.40;99.90
16995;DHT22;8614;48.522;9.206;2023-04-01T18:39:14;10.40;99.90
16995;DHT22;8614;48.522;9.206;2023-04-01T18:41:51;10.40;99.90
16995;DHT22;8614;48.522;9.206;2023-04-01T18:44:28;10.40;99.90
16995;DHT22;8614;48.522;9.206;2023-04-01T18:47:21;10.30;99.90
16995;DHT22;8614;48.522;9.206;2023-04-01T18:50:01;10.30;99.90
16995;DHT22;8614;48.522;9.206;2023-04-01T18:52:36;10.20;99.90
16995;DHT22;8614;48.522;9.206;2023-04-01T18:55:28;10.20;99.90
16995;DHT22;8614;48.522;9.206;2023-04-01T18:58:06;10.10;99.90
16995;DHT22;8614;48.522;9.206;2023-04-01T19:00:49;10.10;99.90
16995;DHT22;8614;48.522;9.206;2023-04-01T19:03:25;10.00;99.90
16995;DHT22;8614;48.522;9.206;2023-04-01T19:05:59;9.80;99.90
16995;DHT22;8614;48.522;9.206;2023-04-01T19:08:30;9.80;99.90
16995;DHT22;8614;48.522;9.206;2023-04-01T19:11:06;9.70;99.90
16995;DHT22;8614;48.522;9.206;2023-04-01T19:13:42;9.60;99.90
16995;DHT22;8614;48.522;9.206;2023-04-01T19:16:21;9.50;99.90
16995;DHT22;8614;48.522;9.206;2023-04-01T19:19:01;9.40;99.90
16995;DHT22;8614;48.522;9.206;2023-04-01T19:21:35;9.30;99.90
16995;DHT22;8614;48.522;9.206;2023-04-01T19:24:14;9.30;99.90
16995;DHT22;8614;48.522;9.206;2023-04-01T19:26:48;9.20;99.90
16995;DHT22;8614;48.522;9.206;2023-04-01T19:29:25;9.10;99.90
16995;DHT22;8614;48.522;9.206;2023-04-01T19:32:01;9.00;99.90
16995;DHT22;8614;48.522;9.206;2023-04-01T19:34:43;8.90;99.90
16995;DHT22;8614;48.522;9.206;2023-04-01T19:37:24;8.80;99.90
16995;DHT22;8614;48.522;9.206;2023-04-01T19:39:59;8.80;99.90
16995;DHT22;8614;48.522;9.206;2023-04-01T19:42:34;8.70;99.90
16995;DHT22;8614;48.522;9.206;2023-04-01T19:45:20;8.60;99.90
16995;DHT22;8614;48.522;9.206;2023-04-01T19:47:59;8.60;99.90
16995;DHT22;8614;48.522;9.206;2023-04-01T19:50:35;8.50;99.90
16995;DHT22;8614;48.522;9.206;2023-04-01T19:53:14;8.40;99.90
16995;DHT22;8614;48.522;9.206;2023-04-01T19:55:48;8.40;99.90
16995;DHT22;8614;48.522;9.206;2023-04-01T19:58:20;8.40;99.90
16995;DHT22;8614;48.522;9.206;2023-04-01T20:00:51;8.30;99.90
16995;DHT22;8614;48.522;9.206;2023-04-01T20:03:34;8.30;99.90
16995;DHT22;8614;48.522;9.206;2023-04-01T20:06:14;8.30;99.90
16995;DHT22;8614;48.522;9.206;2023-04-01T20:08:45;8.20;99.90
16995;DHT22;8614;48.522;9.206;2023-04-01T20:11:30;8.10;99.90
16995;DHT22;8614;48.522;9.206;2023-04-01T20:14:10;8.10;99.90
16995;DHT22;8614;48.522;9.206;2023-04-01T20:16:54;8.00;99.90
16995;DHT22;8614;48.522;9.206;2023-04-01T20:19:28;7.90;99.90
16995;DHT22;8614;48.522;9.206;2023-04-01T20:21:59;7.90;99.90
16995;DHT22;8614;48.522;9.206;2023-04-01T20:24:30;7.90;99.90
16995;DHT22;8614;48.522;9.206;2023-04-01T20:27:03;7.80;99.90
16995;DHT22;8614;48.522;9.206;2023-04-01T20:29:54;7.80;99.90
16995;DHT22;8614;48.522;9.206;2023-04-01T20:32:32;7.90;99.90
16995;DHT22;8614;48.522;9.206;2023-04-01T20:38:26;8.00;99.90
16995;DHT22;8614;48.522;9.206;2023-04-01T20:41:02;8.20;99.90
16995;DHT22;8614;48.522;9.206;2023-04-01T20:43:55;8.30;99.90
16995;DHT22;8614;48.522;9.206;2023-04-01T20:46:32;8.30;99.90
16995;DHT22;8614;48.522;9.206;2023-04-01T20:52:01;8.40;99.90